| time (UTC) | temp F | wind direction | speed MPH | gust MPH | rain 1hr in | rain 24hr in | rain mn in | humidity % | barometer mb |
| 20260503220019 | 74 | 0.0 | 0.0 | 0.00 | 0.00 | 0.00 | 47 | 1011.9 | |
| 20260503215020 | 74 | 0.0 | 2.0 | 0.00 | 0.00 | 0.00 | 47 | 1012.0 | |
| 20260503214019 | 74 | 0.0 | 2.0 | 0.00 | 0.00 | 0.00 | 47 | 1012.2 | |
| 20260503213019 | 74 | 0.0 | 0.0 | 0.00 | 0.00 | 0.00 | 47 | 1012.1 | |
| 20260503212019 | 74 | 0.0 | 3.0 | 0.00 | 0.00 | 0.00 | 47 | 1012.2 | |
| 20260503211020 | 74 | 0.0 | 0.0 | 0.00 | 0.00 | 0.00 | 47 | 1012.3 | |
| 20260503210019 | 73 | 0.0 | 1.0 | 0.00 | 0.00 | 0.00 | 47 | 1012.4 | |
| 20260503205019 | 73 | 0.0 | 1.0 | 0.00 | 0.00 | 0.00 | 48 | 1012.6 | |
| 20260503204019 | 73 | 0.0 | 0.0 | 0.00 | 0.00 | 0.00 | 47 | 1012.6 | |
| 20260503203019 | 73 | 0.0 | 0.0 | 0.00 | 0.00 | 0.00 | 48 | 1012.6 | |
| 20260503202019 | 73 | 0.0 | 1.0 | 0.00 | 0.00 | 0.00 | 50 | 1012.7 | |
| 20260503201039 | 73 | 0.0 | 0.0 | 0.00 | 0.00 | 0.00 | 50 | 1012.8 | |
| 20260503200019 | 73 | 0.0 | 0.0 | 0.00 | 0.00 | 0.00 | 52 | 1012.9 | |
| 20260503195019 | 73 | 0.0 | 2.0 | 0.00 | 0.00 | 0.00 | 51 | 1013.1 | |
| 20260503194019 | 72 | 0 | 1.0 | 2.0 | 0.00 | 0.00 | 0.00 | 50 | 1013.1 |
| 20260503193019 | 72 | 0 | 1.0 | 3.0 | 0.00 | 0.00 | 0.00 | 49 | 1013.3 |
| 20260503192020 | 71 | 0.0 | 0.0 | 0.00 | 0.00 | 0.00 | 55 | 1013.4 | |
| 20260503191019 | 70 | 0.0 | 0.0 | 0.00 | 0.00 | 0.00 | 56 | 1013.5 | |
| 20260503190019 | 70 | 0.0 | 0.0 | 0.00 | 0.00 | 0.00 | 56 | 1013.5 | |
| 20260503185020 | 70 | 0.0 | 0.0 | 0.00 | 0.00 | 0.00 | 58 | 1013.6 | |
| 20260503184019 | 69 | 0.0 | 2.0 | 0.00 | 0.00 | 0.00 | 57 | 1013.6 | |
| 20260503183019 | 69 | 0.0 | 0.0 | 0.00 | 0.00 | 0.00 | 60 | 1013.8 | |
| 20260503182019 | 69 | 0.0 | 0.0 | 0.00 | 0.00 | 0.00 | 60 | 1013.8 | |
| 20260503181019 | 69 | 0.0 | 0.0 | 0.00 | 0.00 | 0.00 | 61 | 1014.0 | |
| 20260503180019 | 69 | 0.0 | 0.0 | 0.00 | 0.00 | 0.00 | 62 | 1014.1 | |
| 20260503175019 | 69 | 0.0 | 0.0 | 0.00 | 0.00 | 0.00 | 61 | 1014.3 | |
| 20260503174039 | 69 | 0.0 | 0.0 | 0.00 | 0.00 | 0.00 | 62 | 1014.3 | |
| 20260503173059 | 68 | 0.0 | 1.0 | 0.00 | 0.00 | 0.00 | 63 | 1014.3 | |
| 20260503172019 | 67 | 0.0 | 0.0 | 0.00 | 0.00 | 0.00 | 64 | 1014.3 | |
| 20260503171019 | 66 | 0.0 | 0.0 | 0.00 | 0.00 | 0.00 | 67 | 1014.4 | |
| 20260503081458 | 54 | 30 | 0.0 | 0.0 | 0.00 | 0.00 | 0.00 | 76 | 1014.2 |
| 20260503071459 | 57 | 26 | 0.0 | 0.0 | 0.00 | 0.00 | 0.00 | 72 | 1014.0 |
| 20260503054459 | 60 | 24 | 0.0 | 0.0 | 0.00 | 0.00 | 0.00 | 68 | 1014.0 |
| 20260503053000 | 61 | 24 | 0.0 | 0.0 | 0.00 | 0.00 | 0.00 | 68 | 1013.9 |
| 20260503051459 | 62 | 24 | 0.0 | 0.0 | 0.00 | 0.00 | 0.00 | 68 | 1013.9 |
| 20260503044500 | 63 | 24 | 0.0 | 0.0 | 0.00 | 0.00 | 0.00 | 63 | 1013.8 |
| 20260503042959 | 64 | 24 | 0.0 | 0.0 | 0.00 | 0.00 | 0.00 | 65 | 1013.7 |
| 20260503041459 | 64 | 24 | 0.0 | 0.0 | 0.00 | 0.00 | 0.00 | 64 | 1013.5 |
| 20260503040000 | 65 | 24 | 0.0 | 0.0 | 0.00 | 0.00 | 0.00 | 61 | 1013.4 |
| 20260503034501 | 66 | 24 | 0.0 | 0.0 | 0.00 | 0.00 | 0.00 | 61 | 1013.3 |
| 20260503033124 | 67 | 23 | 0.0 | 0.0 | 0.00 | 0.00 | 0.00 | 60 | 1013.1 |
| 20260503032519 | 68 | 0.0 | 0.0 | 0.00 | 0.00 | 0.00 | 59 | 1013.2 | |
| 20260503031518 | 68 | 0.0 | 0.0 | 0.00 | 0.00 | 0.00 | 59 | 1013.2 | |
| 20260503030518 | 69 | 0.0 | 0.0 | 0.00 | 0.00 | 0.00 | 59 | 1013.1 | |
| 20260503025520 | 70 | 0.0 | 0.0 | 0.00 | 0.00 | 0.00 | 58 | 1013.0 | |
| 20260503024520 | 70 | 0.0 | 0.0 | 0.00 | 0.00 | 0.00 | 56 | 1013.0 | |
| 20260503023520 | 71 | 0.0 | 0.0 | 0.00 | 0.00 | 0.00 | 54 | 1013.0 | |
| 20260503022520 | 71 | 0.0 | 0.0 | 0.00 | 0.00 | 0.00 | 56 | 1013.1 | |
| 20260503021521 | 71 | 0.0 | 0.0 | 0.00 | 0.00 | 0.00 | 53 | 1013.1 | |
| 20260503020540 | 71 | 0.0 | 0.0 | 0.00 | 0.00 | 0.00 | 49 | 1013.1 | |
| 20260503015520 | 72 | 0.0 | 0.0 | 0.00 | 0.00 | 0.00 | 49 | 1013.2 | |
| 20260503014520 | 72 | 0.0 | 0.0 | 0.00 | 0.00 | 0.00 | 48 | 1013.3 | |
| 20260503013520 | 72 | 0.0 | 0.0 | 0.00 | 0.00 | 0.00 | 48 | 1013.4 | |
| 20260503012520 | 72 | 0.0 | 0.0 | 0.00 | 0.00 | 0.00 | 47 | 1013.5 | |
| 20260503011520 | 72 | 0.0 | 0.0 | 0.00 | 0.00 | 0.00 | 47 | 1013.6 | |
| 20260503010520 | 73 | 0.0 | 0.0 | 0.00 | 0.00 | 0.00 | 46 | 1013.5 | |
| 20260503005519 | 73 | 0.0 | 0.0 | 0.00 | 0.00 | 0.00 | 46 | 1013.6 | |
| 20260503004520 | 73 | 0.0 | 2.0 | 0.00 | 0.00 | 0.00 | 49 | 1013.6 | |
| 20260503003540 | 73 | 0.0 | 0.0 | 0.00 | 0.00 | 0.00 | 47 | 1013.6 | |
| 20260503002520 | 73 | 0.0 | 1.0 | 0.00 | 0.00 | 0.00 | 45 | 1013.6 | |
| 20260503001520 | 73 | 0.0 | 0.0 | 0.00 | 0.00 | 0.00 | 46 | 1013.8 | |
| 20260503000520 | 73 | 0.0 | 0.0 | 0.00 | 0.00 | 0.00 | 45 | 1013.8 | |
| 20260502235519 | 73 | 0.0 | 0.0 | 0.00 | 0.00 | 0.00 | 45 | 1013.8 | |
| 20260502234520 | 73 | 0.0 | 1.0 | 0.00 | 0.00 | 0.00 | 46 | 1013.9 | |
| 20260502233519 | 72 | 0.0 | 0.0 | 0.00 | 0.00 | 0.00 | 46 | 1013.9 | |
| 20260502232519 | 72 | 0.0 | 0.0 | 0.00 | 0.00 | 0.00 | 46 | 1014.1 | |
| 20260502231519 | 72 | 0.0 | 0.0 | 0.00 | 0.00 | 0.00 | 48 | 1014.3 | |
| 20260502230519 | 71 | 0.0 | 0.0 | 0.00 | 0.00 | 0.00 | 50 | 1014.4 | |
| 20260502225520 | 71 | 0.0 | 1.0 | 0.00 | 0.00 | 0.00 | 51 | 1014.6 | |
| 20260502224520 | 70 | 0.0 | 1.0 | 0.00 | 0.00 | 0.00 | 53 | 1014.8 | |
| 20260502223519 | 70 | 0.0 | 0.0 | 0.00 | 0.00 | 0.00 | 56 | 1014.9 | |
| 20260502222519 | 70 | 0.0 | 0.0 | 0.00 | 0.00 | 0.00 | 57 | 1015.2 | |
| 20260502221520 | 70 | 0.0 | 0.0 | 0.00 | 0.00 | 0.00 | 58 | 1015.3 | |
| 20260502220519 | 69 | 0.0 | 3.0 | 0.00 | 0.00 | 0.00 | 58 | 1015.4 |